createdAt,value
2022-09-03T00:02:31.480Z,2.53
2022-09-03T00:05:10.041Z,2.75
2022-09-03T00:07:47.140Z,2.28
2022-09-03T00:10:25.375Z,2.80
2022-09-03T00:12:57.247Z,3.10
2022-09-03T00:15:24.840Z,2.80
2022-09-03T00:18:13.925Z,2.65
2022-09-03T00:21:08.491Z,2.25
2022-09-03T00:23:40.322Z,2.67
2022-09-03T00:26:13.014Z,2.72
2022-09-03T00:28:47.484Z,2.50
2022-09-03T00:31:27.198Z,3.05
2022-09-03T00:34:02.952Z,2.45
2022-09-03T00:36:42.525Z,2.60
2022-09-03T00:39:13.977Z,2.75
2022-09-03T00:42:18.155Z,2.70
2022-09-03T00:45:22.640Z,2.53
2022-09-03T00:48:27.999Z,2.55
2022-09-03T00:51:22.139Z,2.42
2022-09-03T00:54:01.073Z,4.90
2022-09-03T00:56:48.094Z,2.42
2022-09-03T00:59:31.951Z,2.45
2022-09-03T01:02:36.342Z,3.00
2022-09-03T01:05:11.731Z,3.25
2022-09-03T01:07:46.219Z,2.80
2022-09-03T01:10:42.037Z,2.33
2022-09-03T01:13:17.887Z,3.08
2022-09-03T01:16:08.407Z,2.70
2022-09-03T01:18:53.596Z,2.67
2022-09-03T01:24:21.154Z,3.20
2022-09-03T01:27:08.593Z,2.90
2022-09-03T01:29:47.447Z,3.33
2022-09-03T01:32:24.875Z,3.15
2022-09-03T01:35:19.251Z,3.15
2022-09-03T01:38:22.395Z,2.78
2022-09-03T01:41:26.704Z,3.10
2022-09-03T01:44:00.508Z,3.40
2022-09-03T01:46:36.259Z,3.33
2022-09-03T01:49:37.720Z,2.95
2022-09-03T01:52:15.078Z,3.00
2022-09-03T01:55:18.997Z,3.03
2022-09-03T01:58:06.237Z,3.08
2022-09-03T02:00:36.012Z,3.70
2022-09-03T02:03:07.611Z,2.83
2022-09-03T02:05:35.919Z,3.17
2022-09-03T02:08:04.501Z,3.05
2022-09-03T02:10:55.105Z,3.25
2022-09-03T02:13:37.092Z,3.67
2022-09-03T02:16:13.982Z,3.20
2022-09-03T02:18:46.084Z,3.58
2022-09-03T02:21:20.043Z,3.75
2022-09-03T02:23:48.353Z,3.00
2022-09-03T02:26:19.432Z,3.47
2022-09-03T02:28:46.167Z,3.70
2022-09-03T02:31:12.904Z,3.80
2022-09-03T02:33:42.545Z,2.95
2022-09-03T02:36:12.229Z,3.67
2022-09-03T02:38:40.979Z,3.80
2022-09-03T02:41:08.164Z,3.08
2022-09-03T02:43:42.327Z,3.25
2022-09-03T02:46:14.154Z,3.70
2022-09-03T02:48:40.924Z,3.97
2022-09-03T02:51:13.699Z,3.10
2022-09-03T02:53:41.976Z,3.50
2022-09-03T02:56:08.627Z,3.33
2022-09-03T02:58:35.356Z,3.70
2022-09-03T03:01:02.789Z,3.30
2022-09-03T03:03:29.851Z,4.15
2022-09-03T03:05:59.118Z,3.70
2022-09-03T03:08:29.048Z,3.70
2022-09-03T03:10:58.868Z,3.30
2022-09-03T03:13:30.234Z,3.90
2022-09-03T03:16:02.648Z,3.60
2022-09-03T03:18:29.830Z,2.72
2022-09-03T03:20:56.645Z,3.63
2022-09-03T03:23:23.271Z,3.60
2022-09-03T03:25:49.871Z,3.67
2022-09-03T03:28:19.054Z,3.47
2022-09-03T03:30:48.449Z,3.67
2022-09-03T03:33:15.393Z,3.33
2022-09-03T03:35:42.646Z,3.33
2022-09-03T03:38:09.376Z,3.70
2022-09-03T03:40:40.635Z,3.45
2022-09-03T03:43:07.419Z,3.55
2022-09-03T03:45:34.098Z,3.80
2022-09-03T03:48:00.741Z,3.95
2022-09-03T03:50:28.009Z,3.45
2022-09-03T03:52:54.692Z,3.10
2022-09-03T03:55:21.354Z,3.55
2022-09-03T03:57:48.012Z,3.55
2022-09-03T04:00:15.362Z,3.38
2022-09-03T04:02:42.640Z,2.75
2022-09-03T04:05:09.986Z,3.30
2022-09-03T04:07:37.019Z,3.65
2022-09-03T04:10:04.141Z,4.03
2022-09-03T04:12:30.823Z,3.83
2022-09-03T04:14:57.430Z,4.25
2022-09-03T04:17:25.360Z,3.58
2022-09-03T04:19:52.310Z,3.65
2022-09-03T04:22:20.584Z,3.60
2022-09-03T04:24:47.180Z,3.50
2022-09-03T04:27:13.816Z,3.42
2022-09-03T04:29:40.432Z,3.72
2022-09-03T04:32:26.006Z,3.45
2022-09-03T04:34:52.628Z,3.65
2022-09-03T04:37:20.266Z,3.33
2022-09-03T04:39:47.013Z,3.95
2022-09-03T04:42:13.719Z,3.55
2022-09-03T04:44:41.115Z,3.55
2022-09-03T04:47:07.926Z,3.47
2022-09-03T04:49:34.735Z,3.10
2022-09-03T04:52:02.601Z,2.85
2022-09-03T04:54:29.401Z,2.92
2022-09-03T04:56:56.938Z,3.05
2022-09-03T04:59:23.900Z,3.50
2022-09-03T05:01:52.772Z,3.03
2022-09-03T05:04:19.759Z,3.00
2022-09-03T05:06:46.523Z,2.83
2022-09-03T05:09:13.169Z,3.80
2022-09-03T05:11:39.771Z,3.15
2022-09-03T05:14:06.765Z,3.13
2022-09-03T05:16:33.451Z,3.00
2022-09-03T05:19:01.035Z,3.70
2022-09-03T05:21:28.853Z,3.20
2022-09-03T05:23:56.180Z,5.07
2022-09-03T05:26:27.989Z,3.33
2022-09-03T05:28:57.030Z,3.58
2022-09-03T05:31:26.480Z,2.45
2022-09-03T05:33:57.721Z,3.30
2022-09-03T05:36:26.089Z,3.40
2022-09-03T05:38:58.388Z,2.83
2022-09-03T05:41:26.687Z,3.22
2022-09-03T05:44:01.241Z,2.97
2022-09-03T05:46:33.290Z,2.80
2022-09-03T05:49:02.010Z,2.97
2022-09-03T05:51:29.495Z,2.90
2022-09-03T05:53:56.267Z,3.22
2022-09-03T05:56:25.631Z,3.40
2022-09-03T05:58:54.615Z,3.08
2022-09-03T06:01:22.145Z,3.05
2022-09-03T06:04:03.695Z,3.33
2022-09-03T06:06:32.888Z,3.20
2022-09-03T06:09:02.584Z,3.35
2022-09-03T06:11:30.689Z,2.63
2022-09-03T06:14:01.356Z,3.20
2022-09-03T06:16:31.592Z,3.40
2022-09-03T06:18:59.828Z,3.50
2022-09-03T06:21:26.655Z,2.80
2022-09-03T06:23:56.861Z,2.63
2022-09-03T06:26:28.601Z,3.22
2022-09-03T06:28:57.002Z,3.08
2022-09-03T06:31:24.685Z,3.50
2022-09-03T06:33:52.985Z,2.97
2022-09-03T06:36:20.659Z,3.35
2022-09-03T06:38:48.085Z,3.50
2022-09-03T06:41:26.897Z,3.38
2022-09-03T06:43:57.344Z,2.88
2022-09-03T06:46:24.263Z,2.88
2022-09-03T06:48:51.679Z,3.38
2022-09-03T06:51:20.999Z,3.17
2022-09-03T06:53:50.151Z,3.42
2022-09-03T06:56:19.574Z,3.40
2022-09-03T06:58:47.660Z,3.10
2022-09-03T07:01:15.718Z,3.28
2022-09-03T07:03:44.101Z,2.88
2022-09-03T07:06:13.850Z,2.42
2022-09-03T07:08:42.449Z,2.70
2022-09-03T07:11:12.164Z,2.88
2022-09-03T07:13:41.847Z,3.17
2022-09-03T07:16:17.545Z,2.65
2022-09-03T07:18:45.160Z,3.25
2022-09-03T07:21:17.455Z,3.05
2022-09-03T07:23:44.966Z,2.63
2022-09-03T07:26:15.120Z,2.55
2022-09-03T07:28:43.892Z,2.40
2022-09-03T07:31:19.121Z,2.88
2022-09-03T07:33:48.523Z,3.60
2022-09-03T07:36:17.108Z,2.88
2022-09-03T07:38:45.084Z,3.40
2022-09-03T07:41:13.252Z,2.67
2022-09-03T07:43:54.169Z,2.67
2022-09-03T07:46:23.681Z,2.65
2022-09-03T07:48:51.961Z,3.00
2022-09-03T07:51:20.349Z,2.95
2022-09-03T07:53:48.624Z,3.28
2022-09-03T07:56:15.818Z,3.20
2022-09-03T07:58:42.978Z,2.67
2022-09-03T08:01:17.840Z,3.17
2022-09-03T08:03:47.010Z,2.95
2022-09-03T08:06:15.405Z,3.05
2022-09-03T08:08:45.026Z,3.13
2022-09-03T08:11:17.109Z,2.72
2022-09-03T08:13:46.044Z,3.17
2022-09-03T08:16:14.896Z,3.22
2022-09-03T08:18:42.282Z,3.70
2022-09-03T08:21:15.387Z,2.92
2022-09-03T08:23:43.984Z,3.10
2022-09-03T08:26:13.092Z,3.63
2022-09-03T08:28:40.667Z,3.53
2022-09-03T08:31:15.409Z,3.80
2022-09-03T08:33:45.111Z,2.95
2022-09-03T08:36:18.801Z,3.22
2022-09-03T08:38:46.860Z,3.35
2022-09-03T08:41:37.018Z,3.45
2022-09-03T08:44:14.022Z,3.63
2022-09-03T08:47:06.007Z,2.95
2022-09-03T08:49:41.449Z,3.65
2022-09-03T08:52:26.187Z,3.97
2022-09-03T08:55:00.133Z,4.55
2022-09-03T08:57:43.330Z,4.18
2022-09-03T09:00:10.485Z,2.83
2022-09-03T09:02:56.951Z,3.10
2022-09-03T09:06:05.591Z,2.60
2022-09-03T09:08:47.640Z,3.60
2022-09-03T09:11:47.043Z,2.88
2022-09-03T09:14:24.071Z,3.47
2022-09-03T09:17:16.988Z,2.63
2022-09-03T09:20:27.520Z,3.13
2022-09-03T09:23:06.573Z,3.53
2022-09-03T09:25:39.782Z,2.53
2022-09-03T09:28:31.221Z,2.97
2022-09-03T09:30:57.952Z,3.50
2022-09-03T09:33:25.563Z,3.10
2022-09-03T09:35:52.276Z,3.08
2022-09-03T09:38:30.167Z,2.97
2022-09-03T09:40:58.200Z,3.05
2022-09-03T09:43:24.938Z,3.38
2022-09-03T09:45:53.495Z,4.00
2022-09-03T09:48:31.323Z,3.97
2022-09-03T09:51:06.119Z,3.75
2022-09-03T09:53:34.965Z,3.47
2022-09-03T09:56:03.049Z,3.10
2022-09-03T09:58:32.167Z,3.05
2022-09-03T10:01:04.045Z,3.25
2022-09-03T10:03:35.651Z,4.32
2022-09-03T10:06:28.629Z,4.05
2022-09-03T10:09:10.785Z,4.32
2022-09-03T10:11:40.745Z,3.50
2022-09-03T10:14:17.129Z,3.67
2022-09-03T10:16:49.069Z,3.60
2022-09-03T10:19:23.137Z,4.10
2022-09-03T10:21:58.476Z,3.30
2022-09-03T10:25:00.713Z,3.53
2022-09-03T10:27:30.245Z,3.22
2022-09-03T10:30:00.378Z,3.33
2022-09-03T10:32:37.875Z,2.85
2022-09-03T10:35:21.742Z,3.13
2022-09-03T10:38:10.544Z,2.85
2022-09-03T10:40:41.232Z,3.60
2022-09-03T10:43:32.513Z,3.35
2022-09-03T10:46:18.441Z,2.83
2022-09-03T10:49:20.317Z,3.60
2022-09-03T10:52:02.204Z,3.40
2022-09-03T10:54:56.207Z,3.25
2022-09-03T10:57:49.570Z,3.20
2022-09-03T11:00:18.168Z,3.95
2022-09-03T11:03:26.796Z,2.90
2022-09-03T11:06:07.305Z,2.60
2022-09-03T11:08:34.353Z,3.00
2022-09-03T11:11:16.593Z,3.25
2022-09-03T11:13:56.977Z,2.55
2022-09-03T11:16:42.256Z,2.55
2022-09-03T11:19:13.129Z,2.28
2022-09-03T11:21:44.243Z,2.38
2022-09-03T11:24:17.290Z,2.50
2022-09-03T11:26:48.352Z,2.58
2022-09-03T11:29:25.400Z,2.10
2022-09-03T11:32:13.969Z,3.00
2022-09-03T11:34:50.105Z,2.55
2022-09-03T11:37:23.322Z,3.20
2022-09-03T11:40:03.540Z,3.17
2022-09-03T11:42:35.177Z,2.35
2022-09-03T11:45:26.436Z,2.70
2022-09-03T11:47:54.253Z,2.75
2022-09-03T11:50:23.803Z,2.92
2022-09-03T11:52:53.324Z,2.72
2022-09-03T11:55:38.287Z,3.38
2022-09-03T11:58:25.620Z,2.60
2022-09-03T12:00:54.963Z,2.88
2022-09-03T12:03:29.178Z,2.95
2022-09-03T12:06:23.260Z,2.95
2022-09-03T12:09:20.948Z,3.00
2022-09-03T12:11:56.130Z,2.95
2022-09-03T12:14:33.302Z,2.50
2022-09-03T12:17:07.845Z,3.60
2022-09-03T12:19:55.142Z,2.50
2022-09-03T12:22:25.032Z,3.05
2022-09-03T12:24:52.503Z,2.67
2022-09-03T12:27:24.193Z,3.42
2022-09-03T12:29:57.884Z,2.50
2022-09-03T12:32:24.870Z,2.50
2022-09-03T12:34:51.551Z,2.60
2022-09-03T12:40:21.210Z,3.10
2022-09-03T12:42:48.444Z,2.63
2022-09-03T12:45:21.538Z,3.40
2022-09-03T12:47:48.228Z,3.17
2022-09-03T12:50:20.029Z,2.75
2022-09-03T12:53:02.728Z,3.17
2022-09-03T12:55:47.994Z,2.83
2022-09-03T12:58:21.324Z,3.05
2022-09-03T13:00:56.389Z,2.80
2022-09-03T13:03:57.634Z,2.47
2022-09-03T13:06:29.400Z,2.90
2022-09-03T13:09:01.168Z,2.60
2022-09-03T13:11:29.604Z,2.88
2022-09-03T13:14:14.511Z,2.60
2022-09-03T13:16:44.255Z,2.33
2022-09-03T13:19:37.775Z,2.28
2022-09-03T13:22:16.670Z,2.47
2022-09-03T13:25:15.044Z,1.70
2022-09-03T13:27:52.704Z,1.70
2022-09-03T13:30:31.059Z,2.05
2022-09-03T13:33:14.435Z,1.80
2022-09-03T13:35:49.809Z,2.00
2022-09-03T13:38:37.969Z,1.55
2022-09-03T13:41:20.133Z,1.88
2022-09-03T13:44:03.018Z,1.50
2022-09-03T13:46:39.915Z,1.90
2022-09-03T13:49:32.393Z,1.90
2022-09-03T13:52:04.078Z,1.63
2022-09-03T13:54:49.214Z,1.80
2022-09-03T13:57:39.758Z,2.13
2022-09-03T14:00:11.730Z,2.00
2022-09-03T14:03:16.839Z,1.63
2022-09-03T14:06:14.511Z,1.83
2022-09-03T14:09:06.301Z,1.80
2022-09-03T14:12:17.329Z,1.67
2022-09-03T14:15:17.409Z,1.88
2022-09-03T14:17:56.019Z,2.30
2022-09-03T14:20:29.823Z,2.20
2022-09-03T14:25:29.910Z,2.03
2022-09-03T14:28:33.450Z,2.10
2022-09-03T14:31:16.843Z,1.88
2022-09-03T14:34:10.504Z,2.00
2022-09-03T14:36:40.113Z,1.87
2022-09-03T14:39:39.556Z,1.65
2022-09-03T14:42:21.524Z,2.22
2022-09-03T14:45:13.304Z,2.35
2022-09-03T14:48:01.041Z,2.25
2022-09-03T14:51:35.390Z,2.88
2022-09-03T14:54:31.420Z,2.25
2022-09-03T14:57:25.036Z,2.28
2022-09-03T15:00:19.679Z,2.22
2022-09-03T15:03:13.814Z,2.70
2022-09-03T15:06:30.899Z,2.10
2022-09-03T15:09:13.072Z,1.88
2022-09-03T15:12:00.596Z,1.77
2022-09-03T15:14:38.683Z,2.40
2022-09-03T15:17:14.932Z,2.20
2022-09-03T15:19:58.247Z,2.13
2022-09-03T15:22:55.841Z,2.20
2022-09-03T15:25:57.162Z,2.30
2022-09-03T15:28:54.409Z,2.80
2022-09-03T15:31:33.107Z,2.47
2022-09-03T15:34:03.855Z,2.42
2022-09-03T15:36:42.997Z,2.33
2022-09-03T15:39:25.424Z,2.10
2022-09-03T15:41:53.548Z,2.53
2022-09-03T15:44:20.440Z,2.65
2022-09-03T15:47:00.561Z,2.10
2022-09-03T15:49:47.663Z,1.80
2022-09-03T15:52:30.722Z,1.95
2022-09-03T15:55:23.587Z,3.10
2022-09-03T15:57:54.638Z,2.53
2022-09-03T16:00:22.563Z,2.20
2022-09-03T16:03:10.893Z,2.08
2022-09-03T16:05:46.625Z,2.22
2022-09-03T16:08:27.668Z,2.17
2022-09-03T16:11:23.558Z,1.92
2022-09-03T16:14:09.503Z,2.78
2022-09-03T16:16:54.914Z,2.75
2022-09-03T16:19:27.557Z,2.22
2022-09-03T16:22:13.321Z,3.08
2022-09-03T16:24:59.269Z,2.50
2022-09-03T16:27:38.707Z,2.78
2022-09-03T16:30:05.297Z,2.72
2022-09-03T16:32:43.528Z,2.30
2022-09-03T16:35:21.741Z,2.97
2022-09-03T16:38:08.531Z,2.60
2022-09-03T16:40:58.062Z,1.90
2022-09-03T16:43:40.114Z,2.70
2022-09-03T16:46:13.058Z,2.53
2022-09-03T16:49:10.033Z,2.22
2022-09-03T16:51:53.352Z,2.55
2022-09-03T16:55:21.343Z,2.15
2022-09-03T16:58:34.625Z,2.45
2022-09-03T17:01:15.572Z,2.33
2022-09-03T17:04:02.500Z,1.80
2022-09-03T17:06:42.896Z,2.00
2022-09-03T17:09:46.995Z,1.92
2022-09-03T17:12:48.133Z,2.13
2022-09-03T17:15:40.982Z,2.00
2022-09-03T17:18:28.656Z,2.03
2022-09-03T17:20:58.302Z,2.15
2022-09-03T17:23:48.846Z,1.73
2022-09-03T17:26:15.421Z,1.73
2022-09-03T17:29:10.149Z,2.05
2022-09-03T17:31:58.332Z,1.95
2022-09-03T17:34:34.060Z,1.70
2022-09-03T17:37:25.570Z,1.92
2022-09-03T17:40:13.736Z,1.88
2022-09-03T17:42:52.676Z,1.77
2022-09-03T17:45:34.050Z,2.13
2022-09-03T17:48:16.070Z,1.73
2022-09-03T17:50:59.200Z,2.05
2022-09-03T17:53:50.787Z,2.00
2022-09-03T17:56:31.428Z,2.08
2022-09-03T17:59:14.386Z,2.20
2022-09-03T18:01:51.728Z,2.15
2022-09-03T18:04:37.677Z,1.92
2022-09-03T18:07:37.311Z,1.83
2022-09-03T18:10:16.267Z,9.90
2022-09-03T18:13:10.660Z,4.68
2022-09-03T18:15:52.450Z,5.10
2022-09-03T18:18:26.859Z,6.30
2022-09-03T18:21:24.323Z,3.92
2022-09-03T18:24:23.171Z,2.90
2022-09-03T18:27:18.417Z,3.88
2022-09-03T18:30:14.256Z,2.67
2022-09-03T18:32:59.808Z,2.33
2022-09-03T18:35:50.296Z,5.13
2022-09-03T18:38:49.322Z,4.43
2022-09-03T18:41:49.405Z,3.42
2022-09-03T18:44:45.772Z,2.85
2022-09-03T18:48:05.449Z,2.13
2022-09-03T18:51:17.816Z,2.22
2022-09-03T18:54:45.273Z,2.00
2022-09-03T18:57:43.876Z,1.98
2022-09-03T19:00:32.319Z,2.22
2022-09-03T19:03:54.276Z,2.28
2022-09-03T19:06:59.860Z,4.10
2022-09-03T19:12:59.831Z,2.10
2022-09-03T19:15:59.168Z,2.33
2022-09-03T19:19:23.626Z,1.92
2022-09-03T19:22:17.955Z,2.50
2022-09-03T19:25:14.684Z,2.17
2022-09-03T19:28:35.453Z,2.53
2022-09-03T19:31:38.049Z,9.52
2022-09-03T19:34:38.505Z,14.93
2022-09-03T19:37:36.829Z,7.57
2022-09-03T19:40:48.692Z,23.00
2022-09-03T19:43:39.812Z,12.13
2022-09-03T19:46:31.231Z,23.80
2022-09-03T19:49:44.477Z,7.30
2022-09-03T19:52:51.371Z,6.18
2022-09-03T19:55:43.766Z,3.50
2022-09-03T19:58:43.519Z,3.97
2022-09-03T20:01:33.623Z,3.05
2022-09-03T20:04:31.856Z,2.92
2022-09-03T20:07:20.030Z,2.95
2022-09-03T20:10:06.052Z,3.47
2022-09-03T20:12:40.136Z,3.55
2022-09-03T20:15:08.044Z,3.17
2022-09-03T20:17:53.184Z,3.53
2022-09-03T20:20:34.084Z,2.78
2022-09-03T20:23:12.822Z,3.20
2022-09-03T20:26:14.197Z,2.67
2022-09-03T20:28:52.449Z,2.92
2022-09-03T20:31:49.200Z,2.70
2022-09-03T20:34:21.907Z,3.03
2022-09-03T20:37:24.438Z,2.80
2022-09-03T20:40:11.227Z,3.15
2022-09-03T20:42:44.101Z,2.90
2022-09-03T20:45:17.136Z,2.80
2022-09-03T20:48:22.087Z,2.85
2022-09-03T20:50:56.381Z,2.90
2022-09-03T20:53:32.541Z,3.47
2022-09-03T20:56:10.532Z,2.85
2022-09-03T20:59:04.932Z,3.33
2022-09-03T21:01:39.133Z,3.40
2022-09-03T21:04:30.829Z,3.13
2022-09-03T21:07:18.682Z,3.65
2022-09-03T21:09:59.924Z,3.05
2022-09-03T21:13:05.105Z,3.92
2022-09-03T21:15:53.247Z,3.95
2022-09-03T21:18:35.184Z,3.53
2022-09-03T21:21:20.415Z,4.07
2022-09-03T21:23:56.472Z,3.72
2022-09-03T21:26:34.956Z,4.00
2022-09-03T21:29:14.402Z,4.28
2022-09-03T21:31:54.476Z,4.35
2022-09-03T21:34:43.244Z,4.22
2022-09-03T21:37:13.347Z,4.20
2022-09-03T21:39:44.726Z,3.95
2022-09-03T21:42:27.811Z,4.50
2022-09-03T21:45:07.471Z,4.35
2022-09-03T21:47:40.525Z,4.35
2022-09-03T21:50:22.765Z,4.60
2022-09-03T21:53:01.152Z,4.85
2022-09-03T21:56:03.032Z,5.05
2022-09-03T21:58:55.695Z,4.80
2022-09-03T22:01:32.755Z,5.07
2022-09-03T22:03:59.532Z,5.50
2022-09-03T22:06:34.737Z,5.25
2022-09-03T22:09:11.084Z,5.10
2022-09-03T22:11:50.892Z,5.50
2022-09-03T22:14:19.905Z,5.15
2022-09-03T22:17:02.827Z,5.75
2022-09-03T22:19:37.262Z,5.93
2022-09-03T22:22:12.659Z,5.13
2022-09-03T22:25:14.317Z,6.03
2022-09-03T22:28:00.722Z,6.55
2022-09-03T22:30:35.345Z,6.25
2022-09-03T22:35:57.641Z,6.07
2022-09-03T22:38:42.348Z,6.38
2022-09-03T22:41:11.834Z,6.43
2022-09-03T22:43:50.786Z,7.60
2022-09-03T22:46:20.013Z,5.97
2022-09-03T22:49:07.065Z,7.32
2022-09-03T22:52:18.157Z,6.68
2022-09-03T22:55:23.236Z,6.53
2022-09-03T22:57:56.133Z,6.27
2022-09-03T23:00:24.637Z,5.85
2022-09-03T23:03:02.032Z,5.78
2022-09-03T23:05:51.188Z,5.80
2022-09-03T23:08:32.597Z,5.47
2022-09-03T23:11:08.771Z,5.95
2022-09-03T23:13:42.788Z,5.68
2022-09-03T23:16:33.832Z,5.97
2022-09-03T23:21:55.502Z,6.82
2022-09-03T23:24:31.469Z,7.22
2022-09-03T23:27:00.839Z,7.05
2022-09-03T23:29:38.156Z,6.85
2022-09-03T23:32:05.353Z,6.80
2022-09-03T23:34:32.571Z,7.22
2022-09-03T23:37:35.305Z,6.97
2022-09-03T23:40:02.099Z,7.25
2022-09-03T23:42:55.445Z,7.65
2022-09-03T23:45:27.977Z,7.53
2022-09-03T23:48:01.521Z,7.63
2022-09-03T23:50:47.769Z,7.93
2022-09-03T23:53:28.446Z,8.23
2022-09-03T23:56:21.273Z,7.03
2022-09-03T23:59:16.608Z,7.13
